sensor_id;sensor_type;location;lat;lon;timestamp;pressure;altitude;pressure_sealevel;temperature;humidity
34921;BME280;21128;50.016;20.002;2022-12-17T00:01:17;98695.21;;;-2.81;100.00
34921;BME280;21128;50.016;20.002;2022-12-17T00:04:23;98693.68;;;-2.86;100.00
34921;BME280;21128;50.016;20.002;2022-12-17T00:07:28;98687.88;;;-2.91;100.00
34921;BME280;21128;50.016;20.002;2022-12-17T00:10:33;98682.03;;;-2.94;100.00
34921;BME280;21128;50.016;20.002;2022-12-17T00:13:44;98688.11;;;-2.97;100.00
34921;BME280;21128;50.016;20.002;2022-12-17T00:16:49;98686.38;;;-2.96;100.00
34921;BME280;21128;50.016;20.002;2022-12-17T00:20:00;98687.28;;;-2.97;100.00
34921;BME280;21128;50.016;20.002;2022-12-17T00:23:05;98693.33;;;-2.98;100.00
34921;BME280;21128;50.016;20.002;2022-12-17T00:26:09;98695.13;;;-3.00;100.00
34921;BME280;21128;50.016;20.002;2022-12-17T00:29:14;98694.36;;;-3.02;100.00
34921;BME280;21128;50.016;20.002;2022-12-17T00:32:19;98703.84;;;-3.04;100.00
34921;BME280;21128;50.016;20.002;2022-12-17T00:35:24;98708.98;;;-3.04;100.00
34921;BME280;21128;50.016;20.002;2022-12-17T00:38:29;98721.00;;;-3.05;100.00
34921;BME280;21128;50.016;20.002;2022-12-17T00:41:33;98715.99;;;-3.08;100.00
34921;BME280;21128;50.016;20.002;2022-12-17T00:44:45;98710.92;;;-3.09;100.00
34921;BME280;21128;50.016;20.002;2022-12-17T00:47:56;98722.09;;;-3.10;100.00
34921;BME280;21128;50.016;20.002;2022-12-17T00:51:00;98722.09;;;-3.10;100.00
34921;BME280;21128;50.016;20.002;2022-12-17T00:54:05;98725.61;;;-3.13;100.00
34921;BME280;21128;50.016;20.002;2022-12-17T00:57:11;98726.64;;;-3.17;100.00
34921;BME280;21128;50.016;20.002;2022-12-17T01:00:15;98732.71;;;-3.20;100.00
34921;BME280;21128;50.016;20.002;2022-12-17T01:03:33;98741.45;;;-3.24;100.00
34921;BME280;21128;50.016;20.002;2022-12-17T01:06:38;98750.06;;;-3.25;100.00
34921;BME280;21128;50.016;20.002;2022-12-17T01:09:44;98752.63;;;-3.25;100.00
34921;BME280;21128;50.016;20.002;2022-12-17T01:12:49;98758.66;;;-3.26;100.00
34921;BME280;21128;50.016;20.002;2022-12-17T01:15:54;98760.50;;;-3.29;100.00
34921;BME280;21128;50.016;20.002;2022-12-17T01:19:18;98759.78;;;-3.33;100.00
34921;BME280;21128;50.016;20.002;2022-12-17T01:22:23;98759.95;;;-3.37;100.00
34921;BME280;21128;50.016;20.002;2022-12-17T01:25:28;98768.74;;;-3.43;100.00
34921;BME280;21128;50.016;20.002;2022-12-17T01:28:32;98775.61;;;-3.44;100.00
34921;BME280;21128;50.016;20.002;2022-12-17T01:31:37;98778.21;;;-3.45;100.00
34921;BME280;21128;50.016;20.002;2022-12-17T01:34:42;98781.68;;;-3.46;100.00
34921;BME280;21128;50.016;20.002;2022-12-17T01:37:47;98776.55;;;-3.46;100.00
34921;BME280;21128;50.016;20.002;2022-12-17T01:40:52;98770.50;;;-3.45;100.00
34921;BME280;21128;50.016;20.002;2022-12-17T01:43:57;98775.64;;;-3.45;100.00
34921;BME280;21128;50.016;20.002;2022-12-17T01:47:01;98774.03;;;-3.48;100.00
34921;BME280;21128;50.016;20.002;2022-12-17T01:50:06;98772.36;;;-3.49;100.00
34921;BME280;21128;50.016;20.002;2022-12-17T01:53:14;98775.77;;;-3.48;100.00
34921;BME280;21128;50.016;20.002;2022-12-17T01:56:21;98762.09;;;-3.49;100.00
34921;BME280;21128;50.016;20.002;2022-12-17T01:59:56;98762.98;;;-3.50;100.00
34921;BME280;21128;50.016;20.002;2022-12-17T02:03:03;98759.58;;;-3.50;100.00
34921;BME280;21128;50.016;20.002;2022-12-17T02:06:31;98766.52;;;-3.52;100.00
34921;BME280;21128;50.016;20.002;2022-12-17T02:09:48;98754.54;;;-3.53;100.00
34921;BME280;21128;50.016;20.002;2022-12-17T02:12:58;98753.83;;;-3.57;100.00
34921;BME280;21128;50.016;20.002;2022-12-17T02:16:16;98758.97;;;-3.57;100.00
34921;BME280;21128;50.016;20.002;2022-12-17T02:26:47;98744.39;;;-3.56;100.00
34921;BME280;21128;50.016;20.002;2022-12-17T02:30:04;98742.66;;;-3.56;100.00
34921;BME280;21128;50.016;20.002;2022-12-17T02:33:16;98729.88;;;-3.57;100.00
34921;BME280;21128;50.016;20.002;2022-12-17T02:36:21;98726.47;;;-3.58;100.00
34921;BME280;21128;50.016;20.002;2022-12-17T02:39:25;98723.13;;;-3.60;100.00
34921;BME280;21128;50.016;20.002;2022-12-17T02:42:31;98702.80;;;-3.66;100.00
34921;BME280;21128;50.016;20.002;2022-12-17T02:45:36;98723.50;;;-3.71;100.00
34921;BME280;21128;50.016;20.002;2022-12-17T02:48:41;98764.66;;;-3.72;100.00
34921;BME280;21128;50.016;20.002;2022-12-17T02:52:04;98801.50;;;-3.73;100.00
34921;BME280;21128;50.016;20.002;2022-12-17T02:55:09;98863.06;;;-3.72;100.00
34921;BME280;21128;50.016;20.002;2022-12-17T02:58:14;98877.49;;;-3.67;100.00
34921;BME280;21128;50.016;20.002;2022-12-17T03:01:19;98866.15;;;-3.62;100.00
34921;BME280;21128;50.016;20.002;2022-12-17T03:04:23;98864.33;;;-3.58;100.00
34921;BME280;21128;50.016;20.002;2022-12-17T03:07:34;98855.73;;;-3.57;100.00
34921;BME280;21128;50.016;20.002;2022-12-17T03:10:39;98853.10;;;-3.56;100.00
34921;BME280;21128;50.016;20.002;2022-12-17T03:13:44;98855.61;;;-3.54;100.00
34921;BME280;21128;50.016;20.002;2022-12-17T03:16:57;98853.02;;;-3.53;100.00
34921;BME280;21128;50.016;20.002;2022-12-17T03:20:15;98839.30;;;-3.53;100.00
34921;BME280;21128;50.016;20.002;2022-12-17T03:23:20;98841.93;;;-3.55;100.00
34921;BME280;21128;50.016;20.002;2022-12-17T03:26:25;98848.14;;;-3.60;100.00
34921;BME280;21128;50.016;20.002;2022-12-17T03:29:29;98851.63;;;-3.63;100.00
34921;BME280;21128;50.016;20.002;2022-12-17T03:32:41;98838.86;;;-3.64;100.00
34921;BME280;21128;50.016;20.002;2022-12-17T03:35:46;98836.41;;;-3.67;100.00
34921;BME280;21128;50.016;20.002;2022-12-17T03:38:50;98835.51;;;-3.66;100.00
34921;BME280;21128;50.016;20.002;2022-12-17T03:41:55;98847.52;;;-3.67;100.00
34921;BME280;21128;50.016;20.002;2022-12-17T03:44:59;98838.20;;;-3.70;100.00
34921;BME280;21128;50.016;20.002;2022-12-17T03:48:06;98825.36;;;-3.70;100.00
34921;BME280;21128;50.016;20.002;2022-12-17T03:51:11;98822.79;;;-3.70;100.00
34921;BME280;21128;50.016;20.002;2022-12-17T03:54:16;98823.66;;;-3.71;100.00
34921;BME280;21128;50.016;20.002;2022-12-17T03:57:21;98829.69;;;-3.72;100.00
34921;BME280;21128;50.016;20.002;2022-12-17T04:00:26;98833.09;;;-3.71;100.00
34921;BME280;21128;50.016;20.002;2022-12-17T04:03:30;98842.52;;;-3.72;100.00
34921;BME280;21128;50.016;20.002;2022-12-17T04:06:35;98847.66;;;-3.72;100.00
34921;BME280;21128;50.016;20.002;2022-12-17T04:09:40;98854.47;;;-3.71;100.00
34921;BME280;21128;50.016;20.002;2022-12-17T04:12:45;98850.17;;;-3.70;100.00
34921;BME280;21128;50.016;20.002;2022-12-17T04:16:03;98863.88;;;-3.70;100.00
34921;BME280;21128;50.016;20.002;2022-12-17T04:19:27;98859.58;;;-3.69;100.00
34921;BME280;21128;50.016;20.002;2022-12-17T04:22:32;98867.30;;;-3.71;100.00
34921;BME280;21128;50.016;20.002;2022-12-17T04:25:37;98875.84;;;-3.70;100.00
34921;BME280;21128;50.016;20.002;2022-12-17T04:28:41;98880.14;;;-3.71;100.00
34921;BME280;21128;50.016;20.002;2022-12-17T04:31:47;98876.80;;;-3.73;100.00
34921;BME280;21128;50.016;20.002;2022-12-17T04:34:51;98882.77;;;-3.72;100.00
34921;BME280;21128;50.016;20.002;2022-12-17T04:37:56;98891.31;;;-3.72;100.00
34921;BME280;21128;50.016;20.002;2022-12-17T04:41:01;98888.75;;;-3.72;100.00
34921;BME280;21128;50.016;20.002;2022-12-17T04:44:06;98888.75;;;-3.72;100.00
34921;BME280;21128;50.016;20.002;2022-12-17T04:47:10;98893.05;;;-3.72;100.00
34921;BME280;21128;50.016;20.002;2022-12-17T04:50:15;98891.25;;;-3.70;100.00
34921;BME280;21128;50.016;20.002;2022-12-17T04:53:20;98886.09;;;-3.69;100.00
34921;BME280;21128;50.016;20.002;2022-12-17T04:56:25;98882.63;;;-3.67;100.00
34921;BME280;21128;50.016;20.002;2022-12-17T04:59:29;98887.77;;;-3.67;100.00
34921;BME280;21128;50.016;20.002;2022-12-17T05:02:34;98883.52;;;-3.69;100.00
34921;BME280;21128;50.016;20.002;2022-12-17T05:05:39;98886.93;;;-3.68;100.00
34921;BME280;21128;50.016;20.002;2022-12-17T05:08:44;98893.80;;;-3.69;100.00
34921;BME280;21128;50.016;20.002;2022-12-17T05:11:56;98905.80;;;-3.69;100.00
34921;BME280;21128;50.016;20.002;2022-12-17T05:15:08;98913.45;;;-3.67;100.00
34921;BME280;21128;50.016;20.002;2022-12-17T05:18:19;98911.77;;;-3.69;100.00
34921;BME280;21128;50.016;20.002;2022-12-17T05:21:31;98919.42;;;-3.67;100.00
34921;BME280;21128;50.016;20.002;2022-12-17T05:24:36;98925.34;;;-3.65;100.00
34921;BME280;21128;50.016;20.002;2022-12-17T05:27:40;98908.20;;;-3.64;100.00
34921;BME280;21128;50.016;20.002;2022-12-17T05:30:52;98903.06;;;-3.64;100.00
34921;BME280;21128;50.016;20.002;2022-12-17T05:33:57;98916.80;;;-3.65;100.00
34921;BME280;21128;50.016;20.002;2022-12-17T05:37:02;98916.80;;;-3.65;100.00
34921;BME280;21128;50.016;20.002;2022-12-17T05:40:08;98918.53;;;-3.66;100.00
34921;BME280;21128;50.016;20.002;2022-12-17T05:43:13;98912.55;;;-3.66;100.00
34921;BME280;21128;50.016;20.002;2022-12-17T05:46:18;98918.53;;;-3.66;100.00
34921;BME280;21128;50.016;20.002;2022-12-17T05:49:23;98918.58;;;-3.67;100.00
34921;BME280;21128;50.016;20.002;2022-12-17T05:52:28;98933.99;;;-3.67;100.00
34921;BME280;21128;50.016;20.002;2022-12-17T05:55:34;98931.42;;;-3.67;100.00
34921;BME280;21128;50.016;20.002;2022-12-17T05:58:38;98934.89;;;-3.69;100.00
34921;BME280;21128;50.016;20.002;2022-12-17T06:01:49;98938.34;;;-3.70;100.00
34921;BME280;21128;50.016;20.002;2022-12-17T06:04:53;98937.48;;;-3.70;100.00
34921;BME280;21128;50.016;20.002;2022-12-17T06:08:07;98943.56;;;-3.73;100.00
34921;BME280;21128;50.016;20.002;2022-12-17T06:11:12;98953.06;;;-3.75;100.00
34921;BME280;21128;50.016;20.002;2022-12-17T06:14:24;98964.22;;;-3.76;100.00
34921;BME280;21128;50.016;20.002;2022-12-17T06:17:28;98981.41;;;-3.78;100.00
34921;BME280;21128;50.016;20.002;2022-12-17T06:20:46;98989.14;;;-3.79;100.00
34921;BME280;21128;50.016;20.002;2022-12-17T06:23:50;98984.95;;;-3.82;100.00
34921;BME280;21128;50.016;20.002;2022-12-17T06:26:55;98994.38;;;-3.82;100.00
34921;BME280;21128;50.016;20.002;2022-12-17T06:29:59;98996.06;;;-3.81;100.00
34921;BME280;21128;50.016;20.002;2022-12-17T06:33:06;99004.66;;;-3.82;100.00
34921;BME280;21128;50.016;20.002;2022-12-17T06:36:18;99004.60;;;-3.81;100.00
34921;BME280;21128;50.016;20.002;2022-12-17T06:39:23;99008.90;;;-3.81;100.00
34921;BME280;21128;50.016;20.002;2022-12-17T06:42:28;99011.47;;;-3.81;100.00
34921;BME280;21128;50.016;20.002;2022-12-17T06:45:32;99014.88;;;-3.81;100.00
34921;BME280;21128;50.016;20.002;2022-12-17T06:48:37;99013.14;;;-3.80;100.00
34921;BME280;21128;50.016;20.002;2022-12-17T06:51:42;99019.95;;;-3.79;100.00
34921;BME280;21128;50.016;20.002;2022-12-17T06:54:46;99048.25;;;-3.81;100.00
34921;BME280;21128;50.016;20.002;2022-12-17T06:57:58;99073.03;;;-3.80;100.00
34921;BME280;21128;50.016;20.002;2022-12-17T07:01:04;99086.77;;;-3.81;100.00
34921;BME280;21128;50.016;20.002;2022-12-17T07:04:08;99091.90;;;-3.81;100.00
34921;BME280;21128;50.016;20.002;2022-12-17T07:07:13;99104.73;;;-3.81;100.00
34921;BME280;21128;50.016;20.002;2022-12-17T07:10:17;99103.06;;;-3.82;100.00
34921;BME280;21128;50.016;20.002;2022-12-17T07:13:22;99101.38;;;-3.83;100.00
34921;BME280;21128;50.016;20.002;2022-12-17T07:16:27;99101.38;;;-3.83;100.00
34921;BME280;21128;50.016;20.002;2022-12-17T07:19:45;99107.36;;;-3.82;100.00
34921;BME280;21128;50.016;20.002;2022-12-17T07:22:54;99103.95;;;-3.83;100.00
34921;BME280;21128;50.016;20.002;2022-12-17T07:25:59;99104.84;;;-3.84;100.00
34921;BME280;21128;50.016;20.002;2022-12-17T07:29:03;99095.36;;;-3.82;100.00
34921;BME280;21128;50.016;20.002;2022-12-17T07:32:08;99086.71;;;-3.79;100.00
34921;BME280;21128;50.016;20.002;2022-12-17T07:35:19;99098.59;;;-3.75;100.00
34921;BME280;21128;50.016;20.002;2022-12-17T07:38:24;99099.27;;;-3.70;100.00
34921;BME280;21128;50.016;20.002;2022-12-17T07:41:28;99112.71;;;-3.62;100.00
34921;BME280;21128;50.016;20.002;2022-12-17T07:44:33;99127.11;;;-3.56;100.00
34921;BME280;21128;50.016;20.002;2022-12-17T07:47:38;99131.17;;;-3.49;100.00
34921;BME280;21128;50.016;20.002;2022-12-17T07:50:47;99126.63;;;-3.41;100.00
34921;BME280;21128;50.016;20.002;2022-12-17T07:53:52;99131.48;;;-3.32;100.00
34921;BME280;21128;50.016;20.002;2022-12-17T07:56:57;99124.48;;;-3.27;100.00
34921;BME280;21128;50.016;20.002;2022-12-17T08:00:02;99139.00;;;-3.26;100.00
34921;BME280;21128;50.016;20.002;2022-12-17T08:03:07;99143.38;;;-3.29;100.00
34921;BME280;21128;50.016;20.002;2022-12-17T08:06:12;99152.09;;;-3.33;100.00
34921;BME280;21128;50.016;20.002;2022-12-17T08:09:17;99159.93;;;-3.38;100.00
34921;BME280;21128;50.016;20.002;2022-12-17T08:12:22;99161.72;;;-3.40;100.00
34921;BME280;21128;50.016;20.002;2022-12-17T08:15:26;99159.04;;;-3.37;100.00
34921;BME280;21128;50.016;20.002;2022-12-17T08:18:31;99175.27;;;-3.35;100.00
34921;BME280;21128;50.016;20.002;2022-12-17T08:21:50;99179.47;;;-3.32;100.00
34921;BME280;21128;50.016;20.002;2022-12-17T08:24:54;99175.06;;;-3.29;100.00
34921;BME280;21128;50.016;20.002;2022-12-17T08:27:59;99185.27;;;-3.26;100.00
34921;BME280;21128;50.016;20.002;2022-12-17T08:31:05;99193.81;;;-3.25;100.00
34921;BME280;21128;50.016;20.002;2022-12-17T08:34:16;99194.55;;;-3.22;100.00
34921;BME280;21128;50.016;20.002;2022-12-17T08:37:21;99208.29;;;-3.23;100.00
34921;BME280;21128;50.016;20.002;2022-12-17T08:40:32;99198.06;;;-3.24;100.00
34921;BME280;21128;50.016;20.002;2022-12-17T08:43:37;99199.73;;;-3.23;100.00
34921;BME280;21128;50.016;20.002;2022-12-17T08:46:42;99207.95;;;-3.12;100.00
34921;BME280;21128;50.016;20.002;2022-12-17T08:49:47;99217.20;;;-3.06;100.00
34921;BME280;21128;50.016;20.002;2022-12-17T08:53:02;99223.08;;;-3.03;100.00
34921;BME280;21128;50.016;20.002;2022-12-17T08:56:06;99222.89;;;-2.97;100.00
34921;BME280;21128;50.016;20.002;2022-12-17T08:59:12;99227.96;;;-2.94;100.00
34921;BME280;21128;50.016;20.002;2022-12-17T09:02:17;99228.58;;;-2.87;100.00
34921;BME280;21128;50.016;20.002;2022-12-17T09:05:22;99228.69;;;-2.90;100.00
34921;BME280;21128;50.016;20.002;2022-12-17T09:08:27;99226.17;;;-2.92;100.00
34921;BME280;21128;50.016;20.002;2022-12-17T09:11:32;99228.82;;;-2.95;100.00
34921;BME280;21128;50.016;20.002;2022-12-17T09:14:37;99227.80;;;-2.89;100.00
34921;BME280;21128;50.016;20.002;2022-12-17T09:17:41;99225.82;;;-2.81;100.00
34921;BME280;21128;50.016;20.002;2022-12-17T09:21:03;99216.43;;;-2.82;100.00
34921;BME280;21128;50.016;20.002;2022-12-17T09:24:14;99202.42;;;-2.73;100.00
34921;BME280;21128;50.016;20.002;2022-12-17T09:27:26;99206.31;;;-2.62;100.00
34921;BME280;21128;50.016;20.002;2022-12-17T09:30:31;99213.72;;;-2.52;100.00
34921;BME280;21128;50.016;20.002;2022-12-17T09:33:36;99221.16;;;-2.43;100.00
34921;BME280;21128;50.016;20.002;2022-12-17T09:36:40;99207.02;;;-2.32;100.00
34921;BME280;21128;50.016;20.002;2022-12-17T09:39:45;99207.27;;;-2.14;100.00
34921;BME280;21128;50.016;20.002;2022-12-17T09:43:40;99197.66;;;-2.09;100.00
34921;BME280;21128;50.016;20.002;2022-12-17T09:47:18;99186.91;;;-1.97;100.00
34921;BME280;21128;50.016;20.002;2022-12-17T09:50:16;99194.13;;;-2.07;100.00
34921;BME280;21128;50.016;20.002;2022-12-17T09:53:34;99201.86;;;-2.07;100.00
34921;BME280;21128;50.016;20.002;2022-12-17T09:56:41;99208.05;;;-2.12;100.00
34921;BME280;21128;50.016;20.002;2022-12-17T09:59:46;99213.59;;;-2.23;100.00
34921;BME280;21128;50.016;20.002;2022-12-17T10:02:51;99230.33;;;-2.36;100.00
34921;BME280;21128;50.016;20.002;2022-12-17T10:05:58;99225.92;;;-2.58;100.00
34921;BME280;21128;50.016;20.002;2022-12-17T10:09:17;99238.49;;;-2.75;100.00
34921;BME280;21128;50.016;20.002;2022-12-17T10:12:23;99229.53;;;-2.90;100.00
34921;BME280;21128;50.016;20.002;2022-12-17T10:15:27;99235.02;;;-3.00;100.00
34921;BME280;21128;50.016;20.002;2022-12-17T10:18:32;99233.58;;;-3.09;100.00
34921;BME280;21128;50.016;20.002;2022-12-17T10:21:43;99242.20;;;-3.12;100.00
34921;BME280;21128;50.016;20.002;2022-12-17T10:24:55;99243.98;;;-3.14;100.00
34921;BME280;21128;50.016;20.002;2022-12-17T10:28:05;99231.31;;;-3.20;100.00
34921;BME280;21128;50.016;20.002;2022-12-17T10:31:17;99237.55;;;-3.27;100.00
34921;BME280;21128;50.016;20.002;2022-12-17T10:34:22;99248.02;;;-3.33;100.00
34921;BME280;21128;50.016;20.002;2022-12-17T10:37:34;99255.67;;;-3.31;100.00
34921;BME280;21128;50.016;20.002;2022-12-17T10:40:39;99255.72;;;-3.33;100.00
34921;BME280;21128;50.016;20.002;2022-12-17T10:43:43;99258.29;;;-3.33;100.00
34921;BME280;21128;50.016;20.002;2022-12-17T10:46:55;99268.47;;;-3.30;100.00
34921;BME280;21128;50.016;20.002;2022-12-17T10:50:03;99271.03;;;-3.30;100.00
34921;BME280;21128;50.016;20.002;2022-12-17T10:53:21;99279.56;;;-3.28;100.00
34921;BME280;21128;50.016;20.002;2022-12-17T10:56:51;99274.45;;;-3.29;100.00
34921;BME280;21128;50.016;20.002;2022-12-17T10:59:57;99281.25;;;-3.27;100.00
34921;BME280;21128;50.016;20.002;2022-12-17T11:03:02;99257.28;;;-3.27;100.00
34921;BME280;21128;50.016;20.002;2022-12-17T11:06:07;99257.30;;;-3.29;100.00
34921;BME280;21128;50.016;20.002;2022-12-17T11:09:28;99272.77;;;-3.30;100.00
34921;BME280;21128;50.016;20.002;2022-12-17T11:12:42;99284.78;;;-3.31;100.00
34921;BME280;21128;50.016;20.002;2022-12-17T11:15:51;99281.36;;;-3.31;100.00
34921;BME280;21128;50.016;20.002;2022-12-17T11:22:45;99292.64;;;-3.35;100.00
34921;BME280;21128;50.016;20.002;2022-12-17T11:26:12;99288.34;;;-3.35;100.00
34921;BME280;21128;50.016;20.002;2022-12-17T11:29:24;99293.48;;;-3.35;100.00
34921;BME280;21128;50.016;20.002;2022-12-17T11:32:37;99289.12;;;-3.33;100.00
34921;BME280;21128;50.016;20.002;2022-12-17T11:36:01;99304.49;;;-3.31;100.00
34921;BME280;21128;50.016;20.002;2022-12-17T11:39:16;99318.34;;;-3.35;100.00
34921;BME280;21128;50.016;20.002;2022-12-17T11:45:51;99318.34;;;-3.35;100.00
34921;BME280;21128;50.016;20.002;2022-12-17T11:52:41;99335.59;;;-3.41;100.00
34921;BME280;21128;50.016;20.002;2022-12-17T11:59:27;99312.59;;;-3.45;100.00
34921;BME280;21128;50.016;20.002;2022-12-17T12:02:52;99316.24;;;-3.52;100.00
34921;BME280;21128;50.016;20.002;2022-12-17T12:06:11;99330.87;;;-3.56;100.00
34921;BME280;21128;50.016;20.002;2022-12-17T12:09:27;99336.02;;;-3.56;100.00
34921;BME280;21128;50.016;20.002;2022-12-17T12:15:50;99335.27;;;-3.59;100.00
34921;BME280;21128;50.016;20.002;2022-12-17T12:19:18;99333.59;;;-3.60;100.00
34921;BME280;21128;50.016;20.002;2022-12-17T12:22:45;99327.61;;;-3.61;100.00
34921;BME280;21128;50.016;20.002;2022-12-17T12:26:11;99344.75;;;-3.61;100.00
34921;BME280;21128;50.016;20.002;2022-12-17T12:36:19;99380.97;;;-3.72;100.00
34921;BME280;21128;50.016;20.002;2022-12-17T12:39:31;99369.02;;;-3.73;100.00
34921;BME280;21128;50.016;20.002;2022-12-17T12:42:55;99374.16;;;-3.73;100.00
34921;BME280;21128;50.016;20.002;2022-12-17T12:49:24;99390.30;;;-3.68;100.00
34921;BME280;21128;50.016;20.002;2022-12-17T12:52:32;99400.62;;;-3.70;100.00
34921;BME280;21128;50.016;20.002;2022-12-17T12:55:38;99419.54;;;-3.74;100.00
34921;BME280;21128;50.016;20.002;2022-12-17T12:58:43;99408.52;;;-3.77;100.00
34921;BME280;21128;50.016;20.002;2022-12-17T13:01:47;99421.37;;;-3.79;100.00
34921;BME280;21128;50.016;20.002;2022-12-17T13:04:53;99422.24;;;-3.78;100.00
34921;BME280;21128;50.016;20.002;2022-12-17T13:10:53;99433.41;;;-3.81;100.00
34921;BME280;21128;50.016;20.002;2022-12-17T13:13:44;99445.45;;;-3.83;100.00
34921;BME280;21128;50.016;20.002;2022-12-17T13:16:54;99433.50;;;-3.84;100.00
34921;BME280;21128;50.016;20.002;2022-12-17T13:20:01;99439.48;;;-3.83;100.00
34921;BME280;21128;50.016;20.002;2022-12-17T13:26:16;99444.56;;;-3.82;100.00
34921;BME280;21128;50.016;20.002;2022-12-17T13:29:12;99439.44;;;-3.82;100.00
34921;BME280;21128;50.016;20.002;2022-12-17T13:32:08;99448.77;;;-3.78;100.00
34921;BME280;21128;50.016;20.002;2022-12-17T13:35:25;99460.72;;;-3.77;100.00
34921;BME280;21128;50.016;20.002;2022-12-17T13:38:32;99456.38;;;-3.75;100.00
34921;BME280;21128;50.016;20.002;2022-12-17T13:41:27;99458.15;;;-3.77;100.00
34921;BME280;21128;50.016;20.002;2022-12-17T13:44:19;99468.37;;;-3.75;100.00
34921;BME280;21128;50.016;20.002;2022-12-17T13:47:19;99477.81;;;-3.76;100.00
34921;BME280;21128;50.016;20.002;2022-12-17T13:50:21;99476.97;;;-3.76;100.00
34921;BME280;21128;50.016;20.002;2022-12-17T13:53:11;99487.24;;;-3.76;100.00
34921;BME280;21128;50.016;20.002;2022-12-17T13:55:57;99486.40;;;-3.77;100.00
34921;BME280;21128;50.016;20.002;2022-12-17T13:58:43;99502.70;;;-3.78;100.00
34921;BME280;21128;50.016;20.002;2022-12-17T14:01:29;99511.25;;;-3.79;100.00
34921;BME280;21128;50.016;20.002;2022-12-17T14:04:23;99506.16;;;-3.80;100.00
34921;BME280;21128;50.016;20.002;2022-12-17T14:07:09;99510.41;;;-3.79;100.00
34921;BME280;21128;50.016;20.002;2022-12-17T14:09:55;99519.84;;;-3.80;100.00
34921;BME280;21128;50.016;20.002;2022-12-17T14:12:41;99527.54;;;-3.80;100.00
34921;BME280;21128;50.016;20.002;2022-12-17T14:15:27;99522.48;;;-3.83;100.00
34921;BME280;21128;50.016;20.002;2022-12-17T14:18:17;99525.94;;;-3.84;100.00
34921;BME280;21128;50.016;20.002;2022-12-17T14:21:10;99531.08;;;-3.84;100.00
34921;BME280;21128;50.016;20.002;2022-12-17T14:24:03;99541.30;;;-3.82;100.00
34921;BME280;21128;50.016;20.002;2022-12-17T14:26:58;99554.98;;;-3.82;100.00
34921;BME280;21128;50.016;20.002;2022-12-17T14:29:45;99551.62;;;-3.84;100.00
34921;BME280;21128;50.016;20.002;2022-12-17T14:32:35;99561.89;;;-3.84;100.00
34921;BME280;21128;50.016;20.002;2022-12-17T14:35:30;99563.58;;;-3.83;100.00
34921;BME280;21128;50.016;20.002;2022-12-17T14:38:18;99562.77;;;-3.85;100.00
34921;BME280;21128;50.016;20.002;2022-12-17T14:41:12;99569.63;;;-3.85;100.00
34921;BME280;21128;50.016;20.002;2022-12-17T14:44:26;99562.81;;;-3.86;100.00
34921;BME280;21128;50.016;20.002;2022-12-17T14:47:25;99569.69;;;-3.88;100.00
34921;BME280;21128;50.016;20.002;2022-12-17T14:52:58;99583.44;;;-3.91;100.00
34921;BME280;21128;50.016;20.002;2022-12-17T14:58:44;99595.52;;;-3.96;100.00
34921;BME280;21128;50.016;20.002;2022-12-17T15:01:30;99587.09;;;-4.01;100.00
34921;BME280;21128;50.016;20.002;2022-12-17T15:04:16;99605.95;;;-4.04;100.00
34921;BME280;21128;50.016;20.002;2022-12-17T15:07:03;99609.41;;;-4.05;100.00
34921;BME280;21128;50.016;20.002;2022-12-17T15:09:51;99606.83;;;-4.05;100.00
34921;BME280;21128;50.016;20.002;2022-12-17T15:12:41;99618.83;;;-4.05;100.00
34921;BME280;21128;50.016;20.002;2022-12-17T15:15:28;99612.89;;;-4.07;100.00
34921;BME280;21128;50.016;20.002;2022-12-17T15:18:13;99617.22;;;-4.09;100.00
34921;BME280;21128;50.016;20.002;2022-12-17T15:21:05;99612.96;;;-4.10;100.00
34921;BME280;21128;50.016;20.002;2022-12-17T15:23:51;99622.39;;;-4.12;100.00
34921;BME280;21128;50.016;20.002;2022-12-17T15:26:37;99633.61;;;-4.16;100.00
34921;BME280;21128;50.016;20.002;2022-12-17T15:29:22;99633.66;;;-4.18;100.00
34921;BME280;21128;50.016;20.002;2022-12-17T15:32:19;99631.12;;;-4.19;100.00
34921;BME280;21128;50.016;20.002;2022-12-17T15:35:13;99632.84;;;-4.21;100.00
34921;BME280;21128;50.016;20.002;2022-12-17T15:37:59;99635.41;;;-4.20;100.00
34921;BME280;21128;50.016;20.002;2022-12-17T15:40:51;99643.08;;;-4.18;100.00
34921;BME280;21128;50.016;20.002;2022-12-17T15:43:37;99643.11;;;-4.20;100.00
34921;BME280;21128;50.016;20.002;2022-12-17T15:46:22;99646.52;;;-4.21;100.00
34921;BME280;21128;50.016;20.002;2022-12-17T15:49:08;99656.83;;;-4.22;100.00
34921;BME280;21128;50.016;20.002;2022-12-17T15:51:53;99661.08;;;-4.21;100.00
34921;BME280;21128;50.016;20.002;2022-12-17T15:54:42;99653.38;;;-4.21;100.00
34921;BME280;21128;50.016;20.002;2022-12-17T15:57:28;99661.95;;;-4.22;100.00
34921;BME280;21128;50.016;20.002;2022-12-17T16:00:14;99662.80;;;-4.22;100.00
34921;BME280;21128;50.016;20.002;2022-12-17T16:03:00;99665.41;;;-4.23;100.00
34921;BME280;21128;50.016;20.002;2022-12-17T16:05:45;99665.41;;;-4.23;100.00
34921;BME280;21128;50.016;20.002;2022-12-17T16:08:31;99678.23;;;-4.23;100.00
34921;BME280;21128;50.016;20.002;2022-12-17T16:11:23;99679.11;;;-4.25;100.00
34921;BME280;21128;50.016;20.002;2022-12-17T16:14:09;99676.55;;;-4.25;100.00
34921;BME280;21128;50.016;20.002;2022-12-17T16:16:54;99680.80;;;-4.23;100.00
34921;BME280;21128;50.016;20.002;2022-12-17T16:19:53;99693.59;;;-4.22;100.00
34921;BME280;21128;50.016;20.002;2022-12-17T16:22:38;99690.22;;;-4.24;100.00
34921;BME280;21128;50.016;20.002;2022-12-17T16:25:24;99691.06;;;-4.23;100.00
34921;BME280;21128;50.016;20.002;2022-12-17T16:28:09;99699.57;;;-4.21;100.00
34921;BME280;21128;50.016;20.002;2022-12-17T16:31:06;99697.01;;;-4.21;100.00
34921;BME280;21128;50.016;20.002;2022-12-17T16:33:52;99704.70;;;-4.21;100.00
34921;BME280;21128;50.016;20.002;2022-12-17T16:36:38;99710.69;;;-4.21;100.00
34921;BME280;21128;50.016;20.002;2022-12-17T16:39:23;99712.41;;;-4.20;100.00